Terminal Aerodrome Forecast
Issued by NWS

Home | Current Version | Previous Version | Text Only | Print | Product List | Glossary On
Versions: 1 2 3 4 5 6 7 8 9 10 11 12 13 14 15
000
FTUS46 KSGX 270100 AAA
TAFPSP
TAF AMD
KPSP 270104Z 2701/2724 VRB06KT P6SM VCSH SCT050 OVC070
      TEMPO 2701/2703 6SM -SHRA
     FM270700 VRB05KT P6SM SCT050 BKN070
     FM271400 VRB06KT P6SM SCT070=

USA.gov is the U.S. government's official web portal to all federal, state and local government web resources and services.